sensor_id;sensor_type;location;lat;lon;timestamp;temperature;humidity
3023;DHT22;1521;53.584;9.938;2024-02-04T00:01:39;6.50;99.90
3023;DHT22;1521;53.584;9.938;2024-02-04T00:04:04;6.50;99.90
3023;DHT22;1521;53.584;9.938;2024-02-04T00:06:30;6.40;99.90
3023;DHT22;1521;53.584;9.938;2024-02-04T00:08:56;6.40;99.90
3023;DHT22;1521;53.584;9.938;2024-02-04T00:11:21;6.30;99.90
3023;DHT22;1521;53.584;9.938;2024-02-04T00:13:47;6.40;99.90
3023;DHT22;1521;53.584;9.938;2024-02-04T00:16:12;6.40;99.90
3023;DHT22;1521;53.584;9.938;2024-02-04T00:18:38;6.40;99.90
3023;DHT22;1521;53.584;9.938;2024-02-04T00:21:04;6.40;99.90
3023;DHT22;1521;53.584;9.938;2024-02-04T00:23:29;6.40;99.90
3023;DHT22;1521;53.584;9.938;2024-02-04T00:25:55;6.40;99.90
3023;DHT22;1521;53.584;9.938;2024-02-04T00:28:21;6.40;99.90
3023;DHT22;1521;53.584;9.938;2024-02-04T00:30:46;6.30;99.90
3023;DHT22;1521;53.584;9.938;2024-02-04T00:33:14;6.30;99.90
3023;DHT22;1521;53.584;9.938;2024-02-04T00:35:40;6.40;99.90
3023;DHT22;1521;53.584;9.938;2024-02-04T00:38:05;6.30;99.90
3023;DHT22;1521;53.584;9.938;2024-02-04T00:40:31;6.20;99.90
3023;DHT22;1521;53.584;9.938;2024-02-04T00:42:57;6.30;99.90
3023;DHT22;1521;53.584;9.938;2024-02-04T00:45:22;6.30;99.90
3023;DHT22;1521;53.584;9.938;2024-02-04T00:47:49;6.30;99.90
3023;DHT22;1521;53.584;9.938;2024-02-04T00:50:14;6.20;99.90
3023;DHT22;1521;53.584;9.938;2024-02-04T00:52:40;6.20;99.90
3023;DHT22;1521;53.584;9.938;2024-02-04T00:55:06;6.20;99.90
3023;DHT22;1521;53.584;9.938;2024-02-04T00:57:32;6.10;99.90
3023;DHT22;1521;53.584;9.938;2024-02-04T00:59:58;6.10;99.90
3023;DHT22;1521;53.584;9.938;2024-02-04T01:02:23;6.10;99.90
3023;DHT22;1521;53.584;9.938;2024-02-04T01:04:49;6.20;99.90
3023;DHT22;1521;53.584;9.938;2024-02-04T01:07:17;6.20;99.90
3023;DHT22;1521;53.584;9.938;2024-02-04T01:09:42;6.30;99.90
3023;DHT22;1521;53.584;9.938;2024-02-04T01:12:08;6.40;99.90
3023;DHT22;1521;53.584;9.938;2024-02-04T01:14:34;6.40;99.90
3023;DHT22;1521;53.584;9.938;2024-02-04T01:16:59;6.40;99.90
3023;DHT22;1521;53.584;9.938;2024-02-04T01:19:25;6.50;99.90
3023;DHT22;1521;53.584;9.938;2024-02-04T01:21:50;6.50;99.90
3023;DHT22;1521;53.584;9.938;2024-02-04T01:24:16;6.40;99.90
3023;DHT22;1521;53.584;9.938;2024-02-04T01:26:41;6.50;99.90
3023;DHT22;1521;53.584;9.938;2024-02-04T01:29:07;6.50;99.90
3023;DHT22;1521;53.584;9.938;2024-02-04T01:31:32;6.50;99.90
3023;DHT22;1521;53.584;9.938;2024-02-04T01:33:58;6.60;99.90
3023;DHT22;1521;53.584;9.938;2024-02-04T01:36:24;6.70;99.90
3023;DHT22;1521;53.584;9.938;2024-02-04T01:38:49;6.70;99.90
3023;DHT22;1521;53.584;9.938;2024-02-04T01:41:15;6.70;99.90
3023;DHT22;1521;53.584;9.938;2024-02-04T01:43:40;6.70;99.90
3023;DHT22;1521;53.584;9.938;2024-02-04T01:46:06;6.70;99.90
3023;DHT22;1521;53.584;9.938;2024-02-04T01:48:32;6.70;99.90
3023;DHT22;1521;53.584;9.938;2024-02-04T01:50:59;6.80;99.90
3023;DHT22;1521;53.584;9.938;2024-02-04T01:53:26;6.70;99.90
3023;DHT22;1521;53.584;9.938;2024-02-04T01:55:53;6.70;99.90
3023;DHT22;1521;53.584;9.938;2024-02-04T01:58:20;6.80;99.90
3023;DHT22;1521;53.584;9.938;2024-02-04T02:00:46;6.90;99.90
3023;DHT22;1521;53.584;9.938;2024-02-04T02:03:14;6.80;99.90
3023;DHT22;1521;53.584;9.938;2024-02-04T02:05:41;6.90;99.90
3023;DHT22;1521;53.584;9.938;2024-02-04T02:08:07;6.90;99.90
3023;DHT22;1521;53.584;9.938;2024-02-04T02:10:32;6.90;99.90
3023;DHT22;1521;53.584;9.938;2024-02-04T02:13:09;7.00;99.90
3023;DHT22;1521;53.584;9.938;2024-02-04T02:15:48;7.00;99.90
3023;DHT22;1521;53.584;9.938;2024-02-04T02:24:48;7.10;95.60
3023;DHT22;1521;53.584;9.938;2024-02-04T02:26:52;7.10;92.50
3023;DHT22;1521;53.584;9.938;2024-02-04T02:29:18;7.00;89.20
3023;DHT22;1521;53.584;9.938;2024-02-04T02:31:45;7.00;90.30
3023;DHT22;1521;53.584;9.938;2024-02-04T02:34:11;7.00;83.20
3023;DHT22;1521;53.584;9.938;2024-02-04T02:36:44;7.00;77.50
3023;DHT22;1521;53.584;9.938;2024-02-04T02:39:34;7.00;72.90
3023;DHT22;1521;53.584;9.938;2024-02-04T02:42:04;7.00;75.10
3023;DHT22;1521;53.584;9.938;2024-02-04T02:44:30;7.00;73.60
3023;DHT22;1521;53.584;9.938;2024-02-04T02:46:59;6.90;73.50
3023;DHT22;1521;53.584;9.938;2024-02-04T02:49:26;6.90;73.30
3023;DHT22;1521;53.584;9.938;2024-02-04T02:51:51;6.80;79.60
3023;DHT22;1521;53.584;9.938;2024-02-04T02:54:18;6.80;79.10
3023;DHT22;1521;53.584;9.938;2024-02-04T02:56:43;6.80;85.10
3023;DHT22;1521;53.584;9.938;2024-02-04T02:59:09;6.80;85.60
3023;DHT22;1521;53.584;9.938;2024-02-04T03:01:38;6.80;85.30
3023;DHT22;1521;53.584;9.938;2024-02-04T03:04:03;6.70;86.70
3023;DHT22;1521;53.584;9.938;2024-02-04T03:06:29;6.70;90.80
3023;DHT22;1521;53.584;9.938;2024-02-04T03:08:55;6.80;90.10
3023;DHT22;1521;53.584;9.938;2024-02-04T03:11:20;6.70;92.10
3023;DHT22;1521;53.584;9.938;2024-02-04T03:13:46;6.70;91.20
3023;DHT22;1521;53.584;9.938;2024-02-04T03:16:12;6.70;93.70
3023;DHT22;1521;53.584;9.938;2024-02-04T03:18:42;6.70;93.60
3023;DHT22;1521;53.584;9.938;2024-02-04T03:21:17;6.70;93.10
3023;DHT22;1521;53.584;9.938;2024-02-04T03:23:44;6.70;93.70
3023;DHT22;1521;53.584;9.938;2024-02-04T03:26:10;6.70;94.90
3023;DHT22;1521;53.584;9.938;2024-02-04T03:28:36;6.70;97.20
3023;DHT22;1521;53.584;9.938;2024-02-04T03:31:02;6.60;98.20
3023;DHT22;1521;53.584;9.938;2024-02-04T03:33:28;6.60;99.90
3023;DHT22;1521;53.584;9.938;2024-02-04T03:35:53;6.60;99.90
3023;DHT22;1521;53.584;9.938;2024-02-04T03:38:19;6.60;99.90
3023;DHT22;1521;53.584;9.938;2024-02-04T03:40:45;6.60;99.90
3023;DHT22;1521;53.584;9.938;2024-02-04T03:43:10;6.60;99.90
3023;DHT22;1521;53.584;9.938;2024-02-04T03:45:36;6.60;99.90
3023;DHT22;1521;53.584;9.938;2024-02-04T03:48:02;6.60;99.90
3023;DHT22;1521;53.584;9.938;2024-02-04T03:50:28;6.60;99.90
3023;DHT22;1521;53.584;9.938;2024-02-04T03:52:53;6.60;99.90
3023;DHT22;1521;53.584;9.938;2024-02-04T03:55:19;6.50;99.90
3023;DHT22;1521;53.584;9.938;2024-02-04T03:57:44;6.50;99.90
3023;DHT22;1521;53.584;9.938;2024-02-04T04:00:11;6.40;99.90
3023;DHT22;1521;53.584;9.938;2024-02-04T04:02:36;6.50;99.90
3023;DHT22;1521;53.584;9.938;2024-02-04T04:05:02;6.50;99.90
3023;DHT22;1521;53.584;9.938;2024-02-04T04:07:28;6.50;99.90
3023;DHT22;1521;53.584;9.938;2024-02-04T04:09:53;6.40;99.90
3023;DHT22;1521;53.584;9.938;2024-02-04T04:12:19;6.30;99.90
3023;DHT22;1521;53.584;9.938;2024-02-04T04:14:44;6.40;99.90
3023;DHT22;1521;53.584;9.938;2024-02-04T04:17:10;6.40;99.90
3023;DHT22;1521;53.584;9.938;2024-02-04T04:19:36;6.40;99.90
3023;DHT22;1521;53.584;9.938;2024-02-04T04:22:02;6.40;99.90
3023;DHT22;1521;53.584;9.938;2024-02-04T04:24:28;6.40;99.90
3023;DHT22;1521;53.584;9.938;2024-02-04T04:26:54;6.40;99.90
3023;DHT22;1521;53.584;9.938;2024-02-04T04:29:20;6.30;99.90
3023;DHT22;1521;53.584;9.938;2024-02-04T04:31:45;6.30;99.90
3023;DHT22;1521;53.584;9.938;2024-02-04T04:34:11;6.30;99.90
3023;DHT22;1521;53.584;9.938;2024-02-04T04:36:37;6.30;99.90
3023;DHT22;1521;53.584;9.938;2024-02-04T04:39:02;6.30;99.90
3023;DHT22;1521;53.584;9.938;2024-02-04T04:41:28;6.30;99.90
3023;DHT22;1521;53.584;9.938;2024-02-04T04:43:53;6.30;99.90
3023;DHT22;1521;53.584;9.938;2024-02-04T04:46:20;6.30;99.90
3023;DHT22;1521;53.584;9.938;2024-02-04T04:48:45;6.30;99.90
3023;DHT22;1521;53.584;9.938;2024-02-04T04:51:11;6.30;99.90
3023;DHT22;1521;53.584;9.938;2024-02-04T04:53:37;6.30;99.90
3023;DHT22;1521;53.584;9.938;2024-02-04T04:56:03;6.30;99.90
3023;DHT22;1521;53.584;9.938;2024-02-04T04:58:29;6.30;99.90
3023;DHT22;1521;53.584;9.938;2024-02-04T05:00:55;6.20;99.90
3023;DHT22;1521;53.584;9.938;2024-02-04T05:03:20;6.20;1.00
3023;DHT22;1521;53.584;9.938;2024-02-04T05:05:46;6.20;1.00
3023;DHT22;1521;53.584;9.938;2024-02-04T05:08:13;6.20;1.00
3023;DHT22;1521;53.584;9.938;2024-02-04T05:10:39;6.20;1.00
3023;DHT22;1521;53.584;9.938;2024-02-04T05:13:05;6.30;1.00
3023;DHT22;1521;53.584;9.938;2024-02-04T05:15:30;6.20;1.00
3023;DHT22;1521;53.584;9.938;2024-02-04T05:17:56;6.10;1.00
3023;DHT22;1521;53.584;9.938;2024-02-04T05:20:21;6.20;1.00
3023;DHT22;1521;53.584;9.938;2024-02-04T05:22:47;6.10;1.00
3023;DHT22;1521;53.584;9.938;2024-02-04T05:25:13;6.10;1.00
3023;DHT22;1521;53.584;9.938;2024-02-04T05:27:39;6.10;1.00
3023;DHT22;1521;53.584;9.938;2024-02-04T05:30:05;6.10;1.00
3023;DHT22;1521;53.584;9.938;2024-02-04T05:32:31;6.10;1.00
3023;DHT22;1521;53.584;9.938;2024-02-04T05:34:56;6.10;1.00
3023;DHT22;1521;53.584;9.938;2024-02-04T05:37:22;6.00;1.00
3023;DHT22;1521;53.584;9.938;2024-02-04T05:39:47;6.00;1.00
3023;DHT22;1521;53.584;9.938;2024-02-04T05:42:13;6.10;1.00
3023;DHT22;1521;53.584;9.938;2024-02-04T05:44:38;6.10;1.00
3023;DHT22;1521;53.584;9.938;2024-02-04T05:47:04;6.10;1.00
3023;DHT22;1521;53.584;9.938;2024-02-04T05:49:30;6.20;1.00
3023;DHT22;1521;53.584;9.938;2024-02-04T05:51:55;6.20;1.00
3023;DHT22;1521;53.584;9.938;2024-02-04T05:54:21;6.20;1.00
3023;DHT22;1521;53.584;9.938;2024-02-04T05:56:46;6.10;1.00
3023;DHT22;1521;53.584;9.938;2024-02-04T05:59:12;6.10;1.00
3023;DHT22;1521;53.584;9.938;2024-02-04T06:01:37;6.10;1.00
3023;DHT22;1521;53.584;9.938;2024-02-04T06:04:03;6.20;1.00
3023;DHT22;1521;53.584;9.938;2024-02-04T06:06:29;6.10;1.00
3023;DHT22;1521;53.584;9.938;2024-02-04T06:08:54;6.20;1.00
3023;DHT22;1521;53.584;9.938;2024-02-04T06:11:20;6.20;1.00
3023;DHT22;1521;53.584;9.938;2024-02-04T06:13:46;6.20;1.00
3023;DHT22;1521;53.584;9.938;2024-02-04T06:16:11;6.10;1.00
3023;DHT22;1521;53.584;9.938;2024-02-04T06:18:38;6.10;1.00
3023;DHT22;1521;53.584;9.938;2024-02-04T06:21:04;6.10;1.00
3023;DHT22;1521;53.584;9.938;2024-02-04T06:23:30;6.10;1.00
3023;DHT22;1521;53.584;9.938;2024-02-04T06:25:56;6.10;1.00
3023;DHT22;1521;53.584;9.938;2024-02-04T06:28:22;6.10;1.00
3023;DHT22;1521;53.584;9.938;2024-02-04T06:30:48;6.10;1.00
3023;DHT22;1521;53.584;9.938;2024-02-04T06:33:14;6.10;1.00
3023;DHT22;1521;53.584;9.938;2024-02-04T06:35:40;6.10;1.00
3023;DHT22;1521;53.584;9.938;2024-02-04T06:38:06;6.10;1.00
3023;DHT22;1521;53.584;9.938;2024-02-04T06:40:31;6.10;1.00
3023;DHT22;1521;53.584;9.938;2024-02-04T06:42:57;6.10;1.00
3023;DHT22;1521;53.584;9.938;2024-02-04T06:45:22;6.10;1.00
3023;DHT22;1521;53.584;9.938;2024-02-04T06:47:48;6.10;1.00
3023;DHT22;1521;53.584;9.938;2024-02-04T06:50:13;6.10;1.00
3023;DHT22;1521;53.584;9.938;2024-02-04T06:52:43;6.10;1.00
3023;DHT22;1521;53.584;9.938;2024-02-04T06:55:09;6.10;1.00
3023;DHT22;1521;53.584;9.938;2024-02-04T06:57:35;6.10;1.00
3023;DHT22;1521;53.584;9.938;2024-02-04T07:00:00;6.10;1.00
3023;DHT22;1521;53.584;9.938;2024-02-04T07:02:26;6.10;1.00
3023;DHT22;1521;53.584;9.938;2024-02-04T07:04:53;6.20;99.90
3023;DHT22;1521;53.584;9.938;2024-02-04T07:07:18;6.20;99.90
3023;DHT22;1521;53.584;9.938;2024-02-04T07:09:44;6.20;99.90
3023;DHT22;1521;53.584;9.938;2024-02-04T07:12:09;6.20;99.90
3023;DHT22;1521;53.584;9.938;2024-02-04T07:14:35;6.20;99.90
3023;DHT22;1521;53.584;9.938;2024-02-04T07:17:00;6.10;99.90
3023;DHT22;1521;53.584;9.938;2024-02-04T07:19:26;6.20;99.90
3023;DHT22;1521;53.584;9.938;2024-02-04T07:21:52;6.10;99.90
3023;DHT22;1521;53.584;9.938;2024-02-04T07:24:17;6.20;99.90
3023;DHT22;1521;53.584;9.938;2024-02-04T07:26:44;6.20;99.90
3023;DHT22;1521;53.584;9.938;2024-02-04T07:29:10;6.20;99.90
3023;DHT22;1521;53.584;9.938;2024-02-04T07:31:37;6.20;99.90
3023;DHT22;1521;53.584;9.938;2024-02-04T07:34:03;6.20;99.90
3023;DHT22;1521;53.584;9.938;2024-02-04T07:36:29;6.30;99.90
3023;DHT22;1521;53.584;9.938;2024-02-04T07:38:54;6.30;99.90
3023;DHT22;1521;53.584;9.938;2024-02-04T07:41:20;6.40;99.90
3023;DHT22;1521;53.584;9.938;2024-02-04T07:43:46;6.40;99.90
3023;DHT22;1521;53.584;9.938;2024-02-04T07:46:13;6.40;99.90
3023;DHT22;1521;53.584;9.938;2024-02-04T07:48:39;6.40;99.90
3023;DHT22;1521;53.584;9.938;2024-02-04T07:51:05;6.40;99.90
3023;DHT22;1521;53.584;9.938;2024-02-04T07:53:31;6.40;99.90
3023;DHT22;1521;53.584;9.938;2024-02-04T07:55:57;6.50;99.90
3023;DHT22;1521;53.584;9.938;2024-02-04T07:58:23;6.50;99.90
3023;DHT22;1521;53.584;9.938;2024-02-04T08:00:48;6.50;99.90
3023;DHT22;1521;53.584;9.938;2024-02-04T08:03:14;6.50;99.90
3023;DHT22;1521;53.584;9.938;2024-02-04T08:05:39;6.60;99.90
3023;DHT22;1521;53.584;9.938;2024-02-04T08:08:05;6.60;99.90
3023;DHT22;1521;53.584;9.938;2024-02-04T08:10:31;6.60;99.90
3023;DHT22;1521;53.584;9.938;2024-02-04T08:12:56;6.60;99.90
3023;DHT22;1521;53.584;9.938;2024-02-04T08:15:22;6.60;99.90
3023;DHT22;1521;53.584;9.938;2024-02-04T08:17:48;6.60;99.90
3023;DHT22;1521;53.584;9.938;2024-02-04T08:20:13;6.70;99.90
3023;DHT22;1521;53.584;9.938;2024-02-04T08:22:39;6.70;99.90
3023;DHT22;1521;53.584;9.938;2024-02-04T08:25:05;6.70;99.90
3023;DHT22;1521;53.584;9.938;2024-02-04T08:27:31;6.80;99.90
3023;DHT22;1521;53.584;9.938;2024-02-04T08:29:56;6.90;99.90
3023;DHT22;1521;53.584;9.938;2024-02-04T08:32:22;6.80;99.90
3023;DHT22;1521;53.584;9.938;2024-02-04T08:34:48;6.80;99.90
3023;DHT22;1521;53.584;9.938;2024-02-04T08:37:13;6.80;99.90
3023;DHT22;1521;53.584;9.938;2024-02-04T08:39:39;6.90;99.90
3023;DHT22;1521;53.584;9.938;2024-02-04T08:42:05;6.90;99.90
3023;DHT22;1521;53.584;9.938;2024-02-04T08:44:31;6.90;99.90
3023;DHT22;1521;53.584;9.938;2024-02-04T08:46:56;6.90;99.90
3023;DHT22;1521;53.584;9.938;2024-02-04T08:49:22;6.90;99.90
3023;DHT22;1521;53.584;9.938;2024-02-04T08:51:48;7.00;99.90
3023;DHT22;1521;53.584;9.938;2024-02-04T08:54:13;7.00;99.90
3023;DHT22;1521;53.584;9.938;2024-02-04T08:56:40;7.00;99.90
3023;DHT22;1521;53.584;9.938;2024-02-04T08:59:05;7.10;99.90
3023;DHT22;1521;53.584;9.938;2024-02-04T09:01:31;7.10;99.90
3023;DHT22;1521;53.584;9.938;2024-02-04T09:03:57;7.20;99.90
3023;DHT22;1521;53.584;9.938;2024-02-04T09:06:22;7.20;99.90
3023;DHT22;1521;53.584;9.938;2024-02-04T09:08:48;7.30;99.90
3023;DHT22;1521;53.584;9.938;2024-02-04T09:11:15;7.20;99.90
3023;DHT22;1521;53.584;9.938;2024-02-04T09:13:45;7.30;99.90
3023;DHT22;1521;53.584;9.938;2024-02-04T09:16:10;7.20;99.90
3023;DHT22;1521;53.584;9.938;2024-02-04T09:18:37;7.30;99.90
3023;DHT22;1521;53.584;9.938;2024-02-04T09:21:02;7.30;99.90
3023;DHT22;1521;53.584;9.938;2024-02-04T09:23:28;7.30;99.90
3023;DHT22;1521;53.584;9.938;2024-02-04T09:25:54;7.30;99.90
3023;DHT22;1521;53.584;9.938;2024-02-04T09:28:19;7.30;99.90
3023;DHT22;1521;53.584;9.938;2024-02-04T09:30:45;7.30;98.80
3023;DHT22;1521;53.584;9.938;2024-02-04T09:33:11;7.30;99.30
3023;DHT22;1521;53.584;9.938;2024-02-04T09:35:37;7.30;97.00
3023;DHT22;1521;53.584;9.938;2024-02-04T09:38:03;7.30;95.10
3023;DHT22;1521;53.584;9.938;2024-02-04T09:40:28;7.30;99.80
3023;DHT22;1521;53.584;9.938;2024-02-04T09:42:56;7.40;98.50
3023;DHT22;1521;53.584;9.938;2024-02-04T09:45:22;7.40;93.40
3023;DHT22;1521;53.584;9.938;2024-02-04T09:47:49;7.50;87.40
3023;DHT22;1521;53.584;9.938;2024-02-04T09:50:15;7.60;83.60
3023;DHT22;1521;53.584;9.938;2024-02-04T09:52:43;7.50;92.90
3023;DHT22;1521;53.584;9.938;2024-02-04T09:55:13;7.60;77.60
3023;DHT22;1521;53.584;9.938;2024-02-04T09:57:40;7.50;70.60
3023;DHT22;1521;53.584;9.938;2024-02-04T10:00:06;7.50;73.10
3023;DHT22;1521;53.584;9.938;2024-02-04T10:02:33;7.50;76.30
3023;DHT22;1521;53.584;9.938;2024-02-04T10:04:59;7.50;77.50
3023;DHT22;1521;53.584;9.938;2024-02-04T10:07:25;7.50;68.80
3023;DHT22;1521;53.584;9.938;2024-02-04T10:09:50;7.50;90.30
3023;DHT22;1521;53.584;9.938;2024-02-04T10:12:17;7.50;62.60
3023;DHT22;1521;53.584;9.938;2024-02-04T10:14:42;7.50;60.00
3023;DHT22;1521;53.584;9.938;2024-02-04T10:17:08;7.60;54.70
3023;DHT22;1521;53.584;9.938;2024-02-04T10:19:34;7.60;55.10
3023;DHT22;1521;53.584;9.938;2024-02-04T10:22:03;7.50;54.30
3023;DHT22;1521;53.584;9.938;2024-02-04T10:24:29;7.60;58.40
3023;DHT22;1521;53.584;9.938;2024-02-04T10:26:56;7.60;52.00
3023;DHT22;1521;53.584;9.938;2024-02-04T10:29:25;7.60;52.50
3023;DHT22;1521;53.584;9.938;2024-02-04T10:31:54;7.70;46.00
3023;DHT22;1521;53.584;9.938;2024-02-04T10:34:20;7.70;49.10
3023;DHT22;1521;53.584;9.938;2024-02-04T10:36:47;7.70;51.40
3023;DHT22;1521;53.584;9.938;2024-02-04T10:39:12;7.70;48.00
3023;DHT22;1521;53.584;9.938;2024-02-04T10:41:44;7.80;49.50
3023;DHT22;1521;53.584;9.938;2024-02-04T10:44:16;7.80;42.60
3023;DHT22;1521;53.584;9.938;2024-02-04T10:46:42;7.70;42.40
3023;DHT22;1521;53.584;9.938;2024-02-04T10:49:14;7.80;47.00
3023;DHT22;1521;53.584;9.938;2024-02-04T10:51:41;7.80;54.60
3023;DHT22;1521;53.584;9.938;2024-02-04T10:54:07;7.80;33.80
3023;DHT22;1521;53.584;9.938;2024-02-04T10:56:43;7.90;29.10
3023;DHT22;1521;53.584;9.938;2024-02-04T10:59:10;7.90;30.60
3023;DHT22;1521;53.584;9.938;2024-02-04T11:01:39;7.90;29.40
3023;DHT22;1521;53.584;9.938;2024-02-04T11:04:05;8.00;22.30
3023;DHT22;1521;53.584;9.938;2024-02-04T11:06:32;8.00;21.00
3023;DHT22;1521;53.584;9.938;2024-02-04T11:08:58;8.00;20.50
3023;DHT22;1521;53.584;9.938;2024-02-04T11:11:25;8.10;14.20
3023;DHT22;1521;53.584;9.938;2024-02-04T11:13:56;8.10;14.80
3023;DHT22;1521;53.584;9.938;2024-02-04T11:16:39;8.10;13.10
3023;DHT22;1521;53.584;9.938;2024-02-04T11:27:14;8.20;4.30
3023;DHT22;1521;53.584;9.938;2024-02-04T11:29:41;8.30;2.50
3023;DHT22;1521;53.584;9.938;2024-02-04T11:32:07;8.30;1.00
3023;DHT22;1521;53.584;9.938;2024-02-04T11:34:33;8.40;1.00
3023;DHT22;1521;53.584;9.938;2024-02-04T11:36:59;8.30;1.00
3023;DHT22;1521;53.584;9.938;2024-02-04T11:39:26;8.40;1.00
3023;DHT22;1521;53.584;9.938;2024-02-04T11:41:52;8.40;1.00
3023;DHT22;1521;53.584;9.938;2024-02-04T11:44:25;8.50;1.00
3023;DHT22;1521;53.584;9.938;2024-02-04T11:46:51;8.50;1.00
3023;DHT22;1521;53.584;9.938;2024-02-04T11:49:23;8.50;1.00
3023;DHT22;1521;53.584;9.938;2024-02-04T11:51:52;8.50;1.00
3023;DHT22;1521;53.584;9.938;2024-02-04T11:54:20;8.50;1.00
3023;DHT22;1521;53.584;9.938;2024-02-04T11:56:48;8.50;1.00
3023;DHT22;1521;53.584;9.938;2024-02-04T11:59:19;8.60;1.00
3023;DHT22;1521;53.584;9.938;2024-02-04T12:01:46;8.60;1.00
3023;DHT22;1521;53.584;9.938;2024-02-04T12:04:13;8.60;1.00
3023;DHT22;1521;53.584;9.938;2024-02-04T12:06:40;8.70;1.00
3023;DHT22;1521;53.584;9.938;2024-02-04T12:09:07;8.70;1.00
3023;DHT22;1521;53.584;9.938;2024-02-04T12:11:35;8.70;1.00
3023;DHT22;1521;53.584;9.938;2024-02-04T12:14:00;8.70;1.00
3023;DHT22;1521;53.584;9.938;2024-02-04T12:16:27;8.70;1.00
3023;DHT22;1521;53.584;9.938;2024-02-04T12:18:52;8.70;1.00
3023;DHT22;1521;53.584;9.938;2024-02-04T12:21:18;8.70;1.00
3023;DHT22;1521;53.584;9.938;2024-02-04T12:23:44;8.70;1.00
3023;DHT22;1521;53.584;9.938;2024-02-04T12:26:09;8.70;1.00
3023;DHT22;1521;53.584;9.938;2024-02-04T12:28:35;8.70;1.00
3023;DHT22;1521;53.584;9.938;2024-02-04T12:31:01;8.70;1.00
3023;DHT22;1521;53.584;9.938;2024-02-04T12:33:28;8.70;1.00
3023;DHT22;1521;53.584;9.938;2024-02-04T12:35:54;8.70;1.00
3023;DHT22;1521;53.584;9.938;2024-02-04T12:38:21;8.70;1.00
3023;DHT22;1521;53.584;9.938;2024-02-04T12:40:47;8.70;1.00
3023;DHT22;1521;53.584;9.938;2024-02-04T12:43:12;8.60;1.00
3023;DHT22;1521;53.584;9.938;2024-02-04T12:45:38;8.60;1.00
3023;DHT22;1521;53.584;9.938;2024-02-04T12:48:04;8.70;1.00
3023;DHT22;1521;53.584;9.938;2024-02-04T12:50:30;8.70;1.00
3023;DHT22;1521;53.584;9.938;2024-02-04T12:53:09;8.70;1.00
3023;DHT22;1521;53.584;9.938;2024-02-04T12:55:37;8.70;1.00
3023;DHT22;1521;53.584;9.938;2024-02-04T12:58:07;8.70;1.00
3023;DHT22;1521;53.584;9.938;2024-02-04T13:00:34;8.80;1.00
3023;DHT22;1521;53.584;9.938;2024-02-04T13:03:00;8.70;1.00
3023;DHT22;1521;53.584;9.938;2024-02-04T13:05:27;8.60;1.00
3023;DHT22;1521;53.584;9.938;2024-02-04T13:07:54;8.70;1.00
3023;DHT22;1521;53.584;9.938;2024-02-04T13:10:24;8.70;1.00
3023;DHT22;1521;53.584;9.938;2024-02-04T13:15:27;8.70;1.00
3023;DHT22;1521;53.584;9.938;2024-02-04T13:17:53;8.70;1.00
3023;DHT22;1521;53.584;9.938;2024-02-04T13:20:18;8.70;1.00
3023;DHT22;1521;53.584;9.938;2024-02-04T13:22:44;8.70;1.00
3023;DHT22;1521;53.584;9.938;2024-02-04T13:25:10;8.70;1.00
3023;DHT22;1521;53.584;9.938;2024-02-04T13:27:35;8.70;1.00
3023;DHT22;1521;53.584;9.938;2024-02-04T13:30:01;8.70;1.00
3023;DHT22;1521;53.584;9.938;2024-02-04T13:32:26;8.70;1.00
3023;DHT22;1521;53.584;9.938;2024-02-04T13:34:52;8.70;1.00
3023;DHT22;1521;53.584;9.938;2024-02-04T13:37:18;8.70;1.00
3023;DHT22;1521;53.584;9.938;2024-02-04T13:39:43;8.70;1.00
3023;DHT22;1521;53.584;9.938;2024-02-04T13:42:09;8.80;1.00
3023;DHT22;1521;53.584;9.938;2024-02-04T13:44:35;8.70;1.00
3023;DHT22;1521;53.584;9.938;2024-02-04T13:47:01;8.70;1.00
3023;DHT22;1521;53.584;9.938;2024-02-04T13:49:26;8.70;1.00
3023;DHT22;1521;53.584;9.938;2024-02-04T13:51:52;8.60;1.00
3023;DHT22;1521;53.584;9.938;2024-02-04T13:54:17;8.60;1.00
3023;DHT22;1521;53.584;9.938;2024-02-04T13:56:44;8.60;1.00
3023;DHT22;1521;53.584;9.938;2024-02-04T13:59:10;8.50;1.00
3023;DHT22;1521;53.584;9.938;2024-02-04T14:01:36;8.50;1.00
3023;DHT22;1521;53.584;9.938;2024-02-04T14:04:01;8.50;1.00
3023;DHT22;1521;53.584;9.938;2024-02-04T14:06:27;8.60;1.00
3023;DHT22;1521;53.584;9.938;2024-02-04T14:08:52;8.60;1.00
3023;DHT22;1521;53.584;9.938;2024-02-04T14:11:18;8.60;1.00
3023;DHT22;1521;53.584;9.938;2024-02-04T14:13:44;8.50;1.00
3023;DHT22;1521;53.584;9.938;2024-02-04T14:16:09;8.50;1.00
3023;DHT22;1521;53.584;9.938;2024-02-04T14:18:35;8.50;1.00
3023;DHT22;1521;53.584;9.938;2024-02-04T14:21:00;8.50;1.00
3023;DHT22;1521;53.584;9.938;2024-02-04T14:23:26;8.50;1.00
3023;DHT22;1521;53.584;9.938;2024-02-04T14:25:51;8.50;1.00
3023;DHT22;1521;53.584;9.938;2024-02-04T14:28:18;8.50;1.00
3023;DHT22;1521;53.584;9.938;2024-02-04T14:30:43;8.50;1.00
3023;DHT22;1521;53.584;9.938;2024-02-04T14:33:09;8.50;1.00
3023;DHT22;1521;53.584;9.938;2024-02-04T14:35:34;8.50;1.00
3023;DHT22;1521;53.584;9.938;2024-02-04T14:38:00;8.50;1.00
3023;DHT22;1521;53.584;9.938;2024-02-04T14:40:27;8.40;1.00
3023;DHT22;1521;53.584;9.938;2024-02-04T14:42:52;8.40;1.00
3023;DHT22;1521;53.584;9.938;2024-02-04T14:45:18;8.40;1.00
3023;DHT22;1521;53.584;9.938;2024-02-04T14:47:44;8.40;1.00
3023;DHT22;1521;53.584;9.938;2024-02-04T14:50:09;8.40;1.00
3023;DHT22;1521;53.584;9.938;2024-02-04T14:52:36;8.40;1.00
3023;DHT22;1521;53.584;9.938;2024-02-04T14:55:01;8.30;1.00
3023;DHT22;1521;53.584;9.938;2024-02-04T14:57:27;8.30;1.00
3023;DHT22;1521;53.584;9.938;2024-02-04T14:59:52;8.30;1.00
3023;DHT22;1521;53.584;9.938;2024-02-04T15:02:18;8.40;1.00
3023;DHT22;1521;53.584;9.938;2024-02-04T15:04:43;8.40;1.00
3023;DHT22;1521;53.584;9.938;2024-02-04T15:07:09;8.30;1.00
3023;DHT22;1521;53.584;9.938;2024-02-04T15:09:34;8.30;1.00
3023;DHT22;1521;53.584;9.938;2024-02-04T15:12:00;8.30;1.00
3023;DHT22;1521;53.584;9.938;2024-02-04T15:14:26;8.30;1.80
3023;DHT22;1521;53.584;9.938;2024-02-04T15:16:53;8.20;6.10
3023;DHT22;1521;53.584;9.938;2024-02-04T15:19:21;8.20;5.10
3023;DHT22;1521;53.584;9.938;2024-02-04T15:21:47;8.20;10.20
3023;DHT22;1521;53.584;9.938;2024-02-04T15:24:13;8.10;19.20
3023;DHT22;1521;53.584;9.938;2024-02-04T15:26:39;8.10;30.40
3023;DHT22;1521;53.584;9.938;2024-02-04T15:29:06;8.10;55.20
3023;DHT22;1521;53.584;9.938;2024-02-04T15:31:32;8.10;78.40
3023;DHT22;1521;53.584;9.938;2024-02-04T15:34:01;8.00;99.90
3023;DHT22;1521;53.584;9.938;2024-02-04T15:36:29;7.90;99.90
3023;DHT22;1521;53.584;9.938;2024-02-04T15:38:57;7.90;99.90
3023;DHT22;1521;53.584;9.938;2024-02-04T15:41:23;7.90;99.90
3023;DHT22;1521;53.584;9.938;2024-02-04T15:43:48;7.80;99.90
3023;DHT22;1521;53.584;9.938;2024-02-04T15:46:14;7.80;99.90
3023;DHT22;1521;53.584;9.938;2024-02-04T15:48:43;7.70;1.00
3023;DHT22;1521;53.584;9.938;2024-02-04T15:51:09;7.70;1.00
3023;DHT22;1521;53.584;9.938;2024-02-04T15:53:35;7.70;1.00
3023;DHT22;1521;53.584;9.938;2024-02-04T15:56:04;7.60;99.90
3023;DHT22;1521;53.584;9.938;2024-02-04T15:58:36;7.60;1.00
3023;DHT22;1521;53.584;9.938;2024-02-04T16:01:14;7.60;1.00
3023;DHT22;1521;53.584;9.938;2024-02-04T16:03:41;7.50;99.90
3023;DHT22;1521;53.584;9.938;2024-02-04T16:06:08;7.50;1.00
3023;DHT22;1521;53.584;9.938;2024-02-04T16:08:34;7.50;99.90
3023;DHT22;1521;53.584;9.938;2024-02-04T16:11:04;7.40;1.00
3023;DHT22;1521;53.584;9.938;2024-02-04T16:13:33;7.40;99.90
3023;DHT22;1521;53.584;9.938;2024-02-04T16:16:02;7.40;1.00
3023;DHT22;1521;53.584;9.938;2024-02-04T16:18:28;7.40;16.40
3023;DHT22;1521;53.584;9.938;2024-02-04T16:20:54;7.40;99.90
3023;DHT22;1521;53.584;9.938;2024-02-04T16:23:19;7.40;99.90
3023;DHT22;1521;53.584;9.938;2024-02-04T16:25:45;7.40;99.90
3023;DHT22;1521;53.584;9.938;2024-02-04T16:28:11;7.30;99.90
3023;DHT22;1521;53.584;9.938;2024-02-04T16:30:36;7.30;90.10
3023;DHT22;1521;53.584;9.938;2024-02-04T16:33:02;7.30;99.90
3023;DHT22;1521;53.584;9.938;2024-02-04T16:35:28;7.30;1.00